Time;durP1;ratioP1;P1;durP2;ratioP2;P2;SDS_P1;SDS_P2;PMS_P1;PMS_P2;Temp;Humidity;BMP_temperature;BMP_pressure;BME280_temperature;BME280_humidity;BME280_pressure;Samples;Min_cycle;Max_cycle;Signal;HPM_P1;HPM_P2
2023/07/03 00:00:59;;;;;;;;;;;;;;;32.47;29.13;97678.44;5048038;28;19967;-85
2023/07/03 00:03:25;;;;;;;;;;;;;;;32.61;28.88;97675.53;5055060;28;20388;-85
2023/07/03 00:05:51;;;;;;;;;;;;;;;32.90;27.95;97687.94;5054698;28;20315;-85
2023/07/03 00:08:18;;;;;;;;;;;;;;;33.12;28.23;97683.25;5054528;28;20011;-85
2023/07/03 00:10:44;;;;;;;;;;;;;;;33.26;28.06;97687.22;5055629;28;19917;-85
2023/07/03 00:13:10;;;;;;;;;;;;;;;33.38;28.20;97694.56;5055075;28;19924;-85
2023/07/03 00:15:36;;;;;;;;;;;;;;;33.38;27.56;97698.19;5054951;28;20335;-86
2023/07/03 00:18:02;;;;;;;;;;;;;;;33.34;28.08;97702.56;5055307;28;20011;-86
2023/07/03 00:20:28;;;;;;;;;;;;;;;33.18;28.27;97698.31;5046613;28;20386;-86
2023/07/03 00:22:55;;;;;;;;;;;;;;;33.15;28.51;97701.38;5047474;28;20007;-85
2023/07/03 00:25:21;;;;;;;;;;;;;;;33.16;28.22;97700.09;5038368;28;20004;-85
2023/07/03 00:27:47;;;;;;;;;;;;;;;33.14;28.78;97702.66;5040440;28;19921;-86
2023/07/03 00:30:14;;;;;;;;;;;;;;;33.23;28.87;97708.97;5038682;28;20081;-86
2023/07/03 00:32:40;;;;;;;;;;;;;;;33.24;28.33;97713.34;5051996;28;19925;-86
2023/07/03 00:35:06;;;;;;;;;;;;;;;33.27;28.24;97720.88;5037876;28;19932;-86
2023/07/03 00:37:33;;;;;;;;;;;;;;;33.20;28.45;97715.66;5054488;28;19917;-85
2023/07/03 00:39:59;;;;;;;;;;;;;;;33.02;28.51;97710.34;5053093;28;19964;-85
2023/07/03 00:42:26;;;;;;;;;;;;;;;32.90;28.90;97711.50;5041160;28;20368;-86
2023/07/03 00:44:52;;;;;;;;;;;;;;;32.82;29.15;97710.38;5037137;28;20280;-85
2023/07/03 00:47:19;;;;;;;;;;;;;;;32.23;29.76;97720.56;5047642;28;19925;-85
2023/07/03 00:49:45;;;;;;;;;;;;;;;32.58;29.64;97724.09;5049042;28;20266;-85
2023/07/03 00:52:12;;;;;;;;;;;;;;;32.89;29.13;97712.75;5043360;28;19928;-85
2023/07/03 00:54:38;;;;;;;;;;;;;;;33.16;28.80;97708.63;5042004;28;19928;-85
2023/07/03 00:57:05;;;;;;;;;;;;;;;33.05;28.88;97720.69;5045785;28;19929;-86
2023/07/03 00:59:34;;;;;;;;;;;;;;;33.15;28.56;97718.44;5048992;28;19921;-86
2023/07/03 01:02:03;;;;;;;;;;;;;;;33.26;28.23;97721.38;5052457;28;20393;-85
2023/07/03 01:04:44;;;;;;;;;;;;;;;33.26;28.58;97719.31;5043625;28;19921;-85
2023/07/03 01:07:14;;;;;;;;;;;;;;;33.27;28.12;97717.25;5049049;28;20023;-85
2023/07/03 01:09:50;;;;;;;;;;;;;;;33.38;28.32;97726.66;5054054;28;19921;-84
2023/07/03 01:12:18;;;;;;;;;;;;;;;33.48;27.76;97718.69;5045934;28;19948;-85
2023/07/03 01:14:45;;;;;;;;;;;;;;;33.54;28.39;97725.22;5044033;28;19967;-85
2023/07/03 01:17:13;;;;;;;;;;;;;;;33.42;28.11;97721.50;5034528;28;20412;-85
2023/07/03 01:19:40;;;;;;;;;;;;;;;33.11;28.28;97730.06;5053322;28;19927;-84
2023/07/03 01:22:22;;;;;;;;;;;;;;;32.86;28.98;97738.59;5049351;28;19921;-85
2023/07/03 01:24:50;;;;;;;;;;;;;;;32.61;29.35;97735.25;5048600;28;20007;-85
2023/07/03 01:27:18;;;;;;;;;;;;;;;32.37;29.53;97736.75;5049972;28;19920;-85
2023/07/03 01:29:45;;;;;;;;;;;;;;;32.52;29.31;97731.78;5047859;28;19929;-85
2023/07/03 01:32:12;;;;;;;;;;;;;;;32.85;28.67;97729.28;5050558;28;19927;-85
2023/07/03 01:34:45;;;;;;;;;;;;;;;32.92;28.77;97731.66;5049551;28;19935;-85
2023/07/03 01:37:13;;;;;;;;;;;;;;;32.89;29.02;97735.50;5052875;28;19917;-85
2023/07/03 01:39:40;;;;;;;;;;;;;;;32.60;29.30;97727.97;5033488;28;20431;-85
2023/07/03 01:42:07;;;;;;;;;;;;;;;32.52;29.17;97731.78;5051531;28;19928;-85
2023/07/03 01:44:33;;;;;;;;;;;;;;;32.51;28.91;97733.06;5033477;28;19925;-85
2023/07/03 01:47:03;;;;;;;;;;;;;;;32.34;29.46;97723.53;5049454;28;19921;-85
2023/07/03 01:49:29;;;;;;;;;;;;;;;32.38;29.52;97727.72;5046402;28;19917;-85
2023/07/03 01:52:10;;;;;;;;;;;;;;;32.54;28.76;97734.88;5051720;28;20369;-85
2023/07/03 01:54:43;;;;;;;;;;;;;;;32.83;28.33;97729.00;5050915;28;19940;-85
2023/07/03 01:57:12;;;;;;;;;;;;;;;32.96;28.49;97740.75;5051771;28;20369;-85
2023/07/03 01:59:40;;;;;;;;;;;;;;;32.65;29.00;97732.94;5035365;28;19927;-85
2023/07/03 02:02:10;;;;;;;;;;;;;;;32.30;29.27;97731.50;5041727;28;19924;-85
2023/07/03 02:04:46;;;;;;;;;;;;;;;32.07;29.60;97734.06;5036642;28;19994;-85
2023/07/03 02:07:12;;;;;;;;;;;;;;;32.45;28.74;97738.66;5051257;28;20380;-85
2023/07/03 02:09:39;;;;;;;;;;;;;;;32.67;28.60;97733.22;5052995;28;19917;-85
2023/07/03 02:12:06;;;;;;;;;;;;;;;32.75;28.34;97737.19;5047691;28;19929;-85
2023/07/03 02:14:34;;;;;;;;;;;;;;;32.64;28.42;97736.31;5052820;28;20019;-85
2023/07/03 02:17:01;;;;;;;;;;;;;;;32.66;28.67;97736.56;5049392;28;19943;-86
2023/07/03 02:19:31;;;;;;;;;;;;;;;32.68;28.31;97734.00;5051826;28;20403;-86
2023/07/03 02:21:58;;;;;;;;;;;;;;;32.82;28.05;97730.28;5049199;28;19925;-85
2023/07/03 02:24:24;;;;;;;;;;;;;;;32.68;28.80;97739.69;5052569;28;19921;-85
2023/07/03 02:26:50;;;;;;;;;;;;;;;32.45;28.14;97738.66;5053135;28;19986;-85
2023/07/03 02:29:17;;;;;;;;;;;;;;;32.38;27.89;97738.31;5053131;28;19924;-86
2023/07/03 02:31:43;;;;;;;;;;;;;;;32.27;28.54;97733.28;5053072;28;19962;-86
2023/07/03 02:34:09;;;;;;;;;;;;;;;32.10;28.80;97743.66;5051474;28;20010;-86
2023/07/03 02:36:36;;;;;;;;;;;;;;;31.94;28.90;97742.13;5050939;28;19928;-86
2023/07/03 02:39:04;;;;;;;;;;;;;;;31.96;28.72;97745.28;5050908;28;20020;-85
2023/07/03 02:41:30;;;;;;;;;;;;;;;32.10;27.99;97732.28;5050963;28;20018;-86
2023/07/03 02:43:56;;;;;;;;;;;;;;;32.19;27.87;97737.03;5049294;28;19921;-86
2023/07/03 02:46:23;;;;;;;;;;;;;;;32.14;28.45;97747.06;5049565;28;19920;-85
2023/07/03 02:48:50;;;;;;;;;;;;;;;32.18;27.62;97747.63;5046930;28;20208;-85
2023/07/03 02:51:16;;;;;;;;;;;;;;;32.20;27.96;97749.97;5049314;28;19951;-86
2023/07/03 02:53:42;;;;;;;;;;;;;;;32.13;27.86;97745.50;5046859;28;19976;-86
2023/07/03 02:56:09;;;;;;;;;;;;;;;32.00;28.16;97745.84;5042068;28;19971;-86
2023/07/03 02:58:35;;;;;;;;;;;;;;;32.01;27.81;97749.47;5052545;28;20028;-85
2023/07/03 03:01:01;;;;;;;;;;;;;;;32.04;27.94;97752.09;5054201;28;19931;-86
2023/07/03 03:03:28;;;;;;;;;;;;;;;32.11;27.67;97750.13;5056134;28;19921;-86
2023/07/03 03:05:55;;;;;;;;;;;;;;;32.18;27.64;97753.31;5056587;28;19978;-86
2023/07/03 03:08:21;;;;;;;;;;;;;;;32.17;27.54;97750.97;5056033;28;20372;-86
2023/07/03 03:10:48;;;;;;;;;;;;;;;31.55;28.26;97751.38;5056369;28;20430;-86
2023/07/03 03:13:14;;;;;;;;;;;;;;;31.32;28.29;97758.72;5052295;28;20288;-87
2023/07/03 03:15:40;;;;;;;;;;;;;;;31.01;28.32;97752.78;5036989;28;19921;-86
2023/07/03 03:18:06;;;;;;;;;;;;;;;30.69;29.06;97748.84;5049400;28;19929;-86
2023/07/03 03:20:32;;;;;;;;;;;;;;;30.73;29.33;97753.03;5043155;28;19921;-86
2023/07/03 03:22:58;;;;;;;;;;;;;;;30.56;30.20;97754.78;5051025;28;19917;-86
2023/07/03 03:25:24;;;;;;;;;;;;;;;30.72;29.72;97754.31;5050223;28;20304;-87
2023/07/03 03:27:50;;;;;;;;;;;;;;;30.87;29.55;97753.53;5051712;28;19929;-86
2023/07/03 03:30:16;;;;;;;;;;;;;;;30.90;29.83;97744.84;5054982;28;19917;-86
2023/07/03 03:32:43;;;;;;;;;;;;;;;31.25;29.18;97751.38;5048376;28;19968;-87
2023/07/03 03:35:09;;;;;;;;;;;;;;;31.62;28.80;97753.81;5036816;28;20431;-87
2023/07/03 03:37:35;;;;;;;;;;;;;;;31.84;28.69;97754.88;5050241;28;20010;-86
2023/07/03 03:40:01;;;;;;;;;;;;;;;32.13;28.86;97754.03;5037633;28;19965;-86
2023/07/03 03:42:27;;;;;;;;;;;;;;;32.67;28.39;97761.66;5055876;28;19924;-86
2023/07/03 03:44:53;;;;;;;;;;;;;;;32.86;28.30;97752.81;5053865;28;20269;-86
2023/07/03 03:47:20;;;;;;;;;;;;;;;33.05;28.57;97762.59;5054764;28;19924;-86
2023/07/03 03:49:46;;;;;;;;;;;;;;;33.50;27.96;97752.34;5055739;28;19943;-86
2023/07/03 03:52:12;;;;;;;;;;;;;;;33.69;28.38;97757.19;5042337;28;20011;-86
2023/07/03 03:54:38;;;;;;;;;;;;;;;33.65;28.22;97753.81;5055592;28;19990;-86
2023/07/03 03:57:04;;;;;;;;;;;;;;;33.79;28.38;97746.38;5052682;28;20443;-86
2023/07/03 03:59:31;;;;;;;;;;;;;;;34.03;28.50;97749.63;5046207;28;19929;-87
2023/07/03 04:01:57;;;;;;;;;;;;;;;34.22;28.46;97753.59;5035000;28;19944;-86
2023/07/03 04:04:23;;;;;;;;;;;;;;;34.31;27.69;97752.63;5051170;28;19924;-87
2023/07/03 04:06:49;;;;;;;;;;;;;;;34.48;27.61;97762.00;5050202;28;20059;-86
2023/07/03 04:09:15;;;;;;;;;;;;;;;34.63;27.97;97756.91;5046995;28;20027;-87
2023/07/03 04:11:41;;;;;;;;;;;;;;;34.92;28.25;97756.44;5050035;28;19939;-88
2023/07/03 04:14:07;;;;;;;;;;;;;;;35.13;28.37;97742.72;5048460;28;20364;-87
2023/07/03 04:16:33;;;;;;;;;;;;;;;35.44;27.11;97751.03;5044151;28;20052;-86
2023/07/03 04:18:59;;;;;;;;;;;;;;;35.60;26.98;97747.41;5047187;28;20399;-87
2023/07/03 04:21:25;;;;;;;;;;;;;;;35.79;26.99;97751.28;5052554;28;20377;-86
2023/07/03 04:23:51;;;;;;;;;;;;;;;35.79;26.80;97754.16;5045602;28;19928;-86
2023/07/03 04:26:17;;;;;;;;;;;;;;;35.67;26.93;97758.31;5044308;28;19920;-87
2023/07/03 04:28:43;;;;;;;;;;;;;;;35.64;26.93;97750.03;5053159;28;19925;-87
2023/07/03 04:31:09;;;;;;;;;;;;;;;35.71;26.95;97752.34;5042532;28;19921;-88
2023/07/03 04:33:35;;;;;;;;;;;;;;;35.71;27.16;97758.06;5045425;28;19921;-87
2023/07/03 04:36:02;;;;;;;;;;;;;;;35.73;27.14;97753.38;5037373;28;20440;-88
2023/07/03 04:38:28;;;;;;;;;;;;;;;35.90;26.51;97751.25;5043374;28;19933;-85
2023/07/03 04:40:54;;;;;;;;;;;;;;;36.05;25.88;97753.84;5044729;28;20018;-87
2023/07/03 04:43:20;;;;;;;;;;;;;;;36.19;26.00;97757.69;5046904;28;20307;-86
2023/07/03 04:45:48;;;;;;;;;;;;;;;36.25;25.37;97764.94;5051143;28;20293;-86
2023/07/03 04:48:16;;;;;;;;;;;;;;;36.48;25.51;97775.03;5049337;28;19932;-85
2023/07/03 04:50:42;;;;;;;;;;;;;;;36.77;24.92;97767.84;5050703;28;19978;-84
2023/07/03 04:53:08;;;;;;;;;;;;;;;37.05;25.77;97771.34;5047880;28;19935;-82
2023/07/03 04:55:35;;;;;;;;;;;;;;;37.37;24.88;97772.44;5048063;28;20384;-85
2023/07/03 04:58:02;;;;;;;;;;;;;;;37.66;25.15;97775.81;5045499;28;19937;-89
2023/07/03 05:00:28;;;;;;;;;;;;;;;37.91;25.00;97781.06;5041476;28;19921;-86
2023/07/03 05:02:57;;;;;;;;;;;;;;;38.16;24.58;97772.47;5048168;28;20037;-85
2023/07/03 05:05:23;;;;;;;;;;;;;;;38.31;24.46;97767.09;5047350;28;19960;-87
2023/07/03 05:07:49;;;;;;;;;;;;;;;38.45;24.12;97777.34;5053528;28;19917;-86
2023/07/03 05:10:16;;;;;;;;;;;;;;;38.30;23.99;97772.06;5043667;28;19967;-85
2023/07/03 05:12:43;;;;;;;;;;;;;;;38.09;24.29;97770.22;5044284;28;20004;-88
2023/07/03 05:15:10;;;;;;;;;;;;;;;37.80;24.35;97780.38;5044318;28;19947;-86
2023/07/03 05:17:38;;;;;;;;;;;;;;;37.74;24.46;97779.69;5044845;28;19924;-85
2023/07/03 05:20:08;;;;;;;;;;;;;;;37.89;24.07;97782.94;5053486;28;20392;-85
2023/07/03 05:22:36;;;;;;;;;;;;;;;38.27;24.30;97775.22;5053628;28;20376;-86
2023/07/03 05:25:02;;;;;;;;;;;;;;;38.40;23.32;97773.25;5053460;28;20046;-85
2023/07/03 05:27:28;;;;;;;;;;;;;;;38.53;24.65;97773.31;5053583;28;20059;-85
2023/07/03 05:29:54;;;;;;;;;;;;;;;38.67;23.63;97774.22;5042561;28;19983;-85
2023/07/03 05:32:20;;;;;;;;;;;;;;;38.81;23.97;97767.25;5045838;28;19921;-85
2023/07/03 05:34:46;;;;;;;;;;;;;;;38.65;24.01;97769.00;5053597;28;19944;-86
2023/07/03 05:37:12;;;;;;;;;;;;;;;38.11;25.16;97770.44;5053490;28;20377;-86
2023/07/03 05:39:38;;;;;;;;;;;;;;;37.78;25.12;97775.19;5053711;28;20364;-86
2023/07/03 05:42:04;;;;;;;;;;;;;;;37.84;25.72;97778.81;5053320;28;20003;-86
2023/07/03 05:44:30;;;;;;;;;;;;;;;37.89;25.77;97783.72;5052727;28;19928;-85
2023/07/03 05:46:56;;;;;;;;;;;;;;;38.43;24.70;97780.78;5048667;28;19920;-85
2023/07/03 05:49:22;;;;;;;;;;;;;;;38.94;24.86;97784.56;5053136;28;19943;-85
2023/07/03 05:51:48;;;;;;;;;;;;;;;39.26;24.20;97782.53;5053317;28;20015;-85
2023/07/03 05:54:16;;;;;;;;;;;;;;;39.34;23.87;97782.66;5053333;28;19959;-85
2023/07/03 05:56:43;;;;;;;;;;;;;;;39.25;22.79;97788.81;5053538;28;19925;-85
2023/07/03 05:59:09;;;;;;;;;;;;;;;38.66;24.88;97784.91;5050007;28;19927;-85
2023/07/03 06:01:35;;;;;;;;;;;;;;;38.64;24.28;97792.50;5051679;28;20315;-86
2023/07/03 06:04:02;;;;;;;;;;;;;;;38.95;23.82;97788.22;5042080;28;20370;-86
2023/07/03 06:06:28;;;;;;;;;;;;;;;38.77;24.30;97803.34;5033799;28;19917;-84
2023/07/03 06:08:54;;;;;;;;;;;;;;;38.88;23.39;97798.22;5033565;28;19925;-85
2023/07/03 06:11:20;;;;;;;;;;;;;;;39.13;23.53;97801.78;5050050;28;19921;-85
2023/07/03 06:13:46;;;;;;;;;;;;;;;39.25;23.67;97795.34;5053001;28;20342;-85
2023/07/03 06:16:12;;;;;;;;;;;;;;;39.27;22.17;97789.03;5052749;28;19960;-85
2023/07/03 06:18:38;;;;;;;;;;;;;;;39.60;21.44;97788.53;5053424;28;19924;-85
2023/07/03 06:21:04;;;;;;;;;;;;;;;39.87;21.52;97792.22;5041885;28;19921;-85
2023/07/03 06:23:30;;;;;;;;;;;;;;;40.01;19.98;97790.94;5033248;28;19925;-85
2023/07/03 06:25:56;;;;;;;;;;;;;;;39.76;20.91;97798.19;5041618;28;19968;-86
2023/07/03 06:28:22;;;;;;;;;;;;;;;39.03;19.88;97787.03;5052531;28;19924;-89
2023/07/03 06:30:48;;;;;;;;;;;;;;;38.27;20.94;97798.97;5038322;28;20319;-86
2023/07/03 06:33:14;;;;;;;;;;;;;;;38.22;21.31;97788.31;5033369;28;20004;-86
2023/07/03 06:35:41;;;;;;;;;;;;;;;38.39;21.07;97794.66;5040224;28;19925;-85
2023/07/03 06:38:07;;;;;;;;;;;;;;;38.72;21.88;97789.84;5045753;28;19975;-85
2023/07/03 06:40:33;;;;;;;;;;;;;;;39.06;20.89;97793.78;5037307;28;19924;-85
2023/07/03 06:42:59;;;;;;;;;;;;;;;39.20;19.38;97790.47;5055974;28;19944;-85
2023/07/03 06:45:25;;;;;;;;;;;;;;;39.20;19.92;97795.44;5055526;28;20273;-85
2023/07/03 06:47:51;;;;;;;;;;;;;;;38.87;21.21;97793.00;5055429;28;19936;-87
2023/07/03 06:50:17;;;;;;;;;;;;;;;38.72;20.09;97795.59;5056939;28;19925;-86
2023/07/03 06:52:46;;;;;;;;;;;;;;;39.12;19.42;97780.88;5056820;28;19920;-86
2023/07/03 06:55:12;;;;;;;;;;;;;;;38.79;19.28;97789.22;5044121;28;19929;-85
2023/07/03 06:57:38;;;;;;;;;;;;;;;39.05;19.85;97777.84;5042067;28;19921;-86
2023/07/03 07:00:05;;;;;;;;;;;;;;;39.28;19.33;97788.50;5056365;28;20007;-87
2023/07/03 07:02:31;;;;;;;;;;;;;;;39.18;18.67;97784.50;5056425;28;19952;-86
2023/07/03 07:04:57;;;;;;;;;;;;;;;39.27;18.68;97797.66;5054972;28;19932;-85
2023/07/03 07:07:24;;;;;;;;;;;;;;;39.29;19.05;97792.94;5056725;28;20349;-86
2023/07/03 07:09:50;;;;;;;;;;;;;;;39.48;19.13;97790.00;5056274;28;19927;-85
2023/07/03 07:12:16;;;;;;;;;;;;;;;39.20;18.33;97789.69;5043818;28;19917;-86
2023/07/03 07:14:42;;;;;;;;;;;;;;;39.26;18.60;97784.63;5036298;28;19924;-86
2023/07/03 07:17:08;;;;;;;;;;;;;;;39.30;17.59;97785.84;5054313;28;19921;-85
2023/07/03 07:19:34;;;;;;;;;;;;;;;39.20;17.16;97781.84;5056492;28;19924;-85
2023/07/03 07:22:00;;;;;;;;;;;;;;;39.23;17.91;97782.84;5055879;28;19921;-86
2023/07/03 07:24:27;;;;;;;;;;;;;;;39.09;17.68;97782.00;5054241;28;19924;-86
2023/07/03 07:26:54;;;;;;;;;;;;;;;39.07;17.12;97781.75;5055960;28;19932;-85
2023/07/03 07:29:21;;;;;;;;;;;;;;;38.90;18.00;97780.44;5042105;28;19921;-85
2023/07/03 07:31:47;;;;;;;;;;;;;;;38.76;17.54;97778.81;5036208;28;19921;-87
2023/07/03 07:34:13;;;;;;;;;;;;;;;38.36;17.81;97781.38;5050822;28;19920;-87
2023/07/03 07:36:40;;;;;;;;;;;;;;;38.44;17.97;97782.31;5055403;28;20434;-87
2023/07/03 07:39:06;;;;;;;;;;;;;;;38.76;17.83;97778.81;5055761;28;20388;-87
2023/07/03 07:41:33;;;;;;;;;;;;;;;38.90;17.72;97784.09;5055381;28;19994;-85
2023/07/03 07:43:59;;;;;;;;;;;;;;;38.72;15.51;97779.88;5055275;28;20003;-86
2023/07/03 07:46:27;;;;;;;;;;;;;;;38.65;15.23;97782.59;5049901;28;19967;-86
2023/07/03 07:48:53;;;;;;;;;;;;;;;38.66;16.38;97782.03;5055324;28;19947;-85
2023/07/03 07:51:19;;;;;;;;;;;;;;;38.28;17.25;97773.91;5056080;28;19921;-86
2023/07/03 07:53:46;;;;;;;;;;;;;;;37.67;17.71;97781.00;5054486;28;19916;-87
2023/07/03 07:56:13;;;;;;;;;;;;;;;37.14;17.07;97775.97;5055715;28;19960;-87
2023/07/03 07:58:39;;;;;;;;;;;;;;;36.92;17.10;97779.78;5055023;28;19921;-87
2023/07/03 08:01:06;;;;;;;;;;;;;;;36.96;17.36;97779.47;5055490;28;20406;-85
2023/07/03 08:03:32;;;;;;;;;;;;;;;37.05;17.49;97782.00;5054718;28;19952;-85
2023/07/03 08:05:58;;;;;;;;;;;;;;;36.89;16.46;97797.97;5055131;28;19920;-86
2023/07/03 08:08:26;;;;;;;;;;;;;;;37.01;16.87;97787.25;5054789;28;20315;-86
2023/07/03 08:10:55;;;;;;;;;;;;;;;37.41;17.14;97791.41;5035478;28;19943;-85
2023/07/03 08:13:22;;;;;;;;;;;;;;;37.51;16.22;97789.78;5046291;28;19950;-84
2023/07/03 08:15:48;;;;;;;;;;;;;;;37.51;17.48;97795.50;5035531;28;20025;-85
2023/07/03 08:18:15;;;;;;;;;;;;;;;37.85;17.06;97791.84;5047790;28;19920;-88
2023/07/03 08:20:42;;;;;;;;;;;;;;;37.89;17.00;97791.53;5049453;28;19925;-87
2023/07/03 08:23:08;;;;;;;;;;;;;;;37.46;16.30;97793.47;5055237;28;20365;-85
2023/07/03 08:25:34;;;;;;;;;;;;;;;37.60;16.59;97792.31;5054868;28;19972;-86
2023/07/03 08:28:00;;;;;;;;;;;;;;;37.56;17.31;97786.06;5054673;28;20301;-85
2023/07/03 08:30:26;;;;;;;;;;;;;;;37.03;17.50;97787.50;5054656;28;19920;-85
2023/07/03 08:32:52;;;;;;;;;;;;;;;37.32;17.96;97783.88;5054949;28;19925;-85
2023/07/03 08:35:18;;;;;;;;;;;;;;;37.34;16.90;97790.66;5054257;28;19979;-85
2023/07/03 08:37:44;;;;;;;;;;;;;;;37.08;17.95;97778.09;5038326;28;19972;-86
2023/07/03 08:40:11;;;;;;;;;;;;;;;36.60;17.92;97778.59;5034590;28;19917;-86
2023/07/03 08:42:46;;;;;;;;;;;;;;;36.83;16.99;97780.03;5034901;28;20373;-85
2023/07/03 08:45:13;;;;;;;;;;;;;;;37.07;16.07;97777.31;5053654;28;19955;-86
2023/07/03 08:47:39;;;;;;;;;;;;;;;36.91;16.20;97781.06;5054674;28;20008;-87
2023/07/03 08:50:06;;;;;;;;;;;;;;;37.79;16.73;97775.94;5054591;28;19928;-87
2023/07/03 08:52:41;;;;;;;;;;;;;;;37.53;16.26;97775.69;5054594;28;19923;-86
2023/07/03 08:55:11;;;;;;;;;;;;;;;37.60;15.83;97773.00;5053357;28;20274;-84
2023/07/03 08:57:38;;;;;;;;;;;;;;;37.53;16.18;97775.69;5054300;28;19963;-85
2023/07/03 09:00:10;;;;;;;;;;;;;;;37.43;15.92;97788.78;5041119;28;19920;-87
2023/07/03 09:02:45;;;;;;;;;;;;;;;37.73;17.38;97780.97;5034632;28;20302;-86
2023/07/03 09:05:17;;;;;;;;;;;;;;;38.15;17.13;97776.66;5034725;28;19917;-86
2023/07/03 09:07:46;;;;;;;;;;;;;;;37.32;18.03;97775.28;5034628;28;19925;-85
2023/07/03 09:10:24;;;;;;;;;;;;;;;37.98;17.91;97776.84;5037595;28;19928;-86
2023/07/03 09:13:05;;;;;;;;;;;;;;;38.08;16.70;97774.38;5041427;28;19917;-86
2023/07/03 09:15:38;;;;;;;;;;;;;;;38.19;15.56;97771.38;5052519;28;19921;-87
2023/07/03 09:18:10;;;;;;;;;;;;;;;38.20;17.08;97773.72;5052862;28;19921;-86
2023/07/03 09:20:36;;;;;;;;;;;;;;;38.37;17.28;97773.56;5053528;28;20427;-86
2023/07/03 09:23:07;;;;;;;;;;;;;;;38.72;16.55;97771.28;5053737;28;19924;-86
2023/07/03 09:25:39;;;;;;;;;;;;;;;38.76;16.71;97764.47;5053575;28;19925;-85
2023/07/03 09:28:07;;;;;;;;;;;;;;;38.10;15.41;97777.50;5042596;28;19995;-87
2023/07/03 09:30:33;;;;;;;;;;;;;;;36.87;16.29;97771.97;5040647;28;20015;-86
2023/07/03 09:32:59;;;;;;;;;;;;;;;36.79;15.83;97788.13;5053469;28;20019;-87
2023/07/03 09:35:32;;;;;;;;;;;;;;;36.55;16.86;97790.88;5053828;28;19978;-84
2023/07/03 09:37:59;;;;;;;;;;;;;;;36.65;16.70;97777.81;5053805;28;19917;-85
2023/07/03 09:40:33;;;;;;;;;;;;;;;36.46;17.20;97788.28;5053439;28;19921;-85
2023/07/03 09:42:59;;;;;;;;;;;;;;;36.13;15.70;97786.28;5053524;28;19917;-86
2023/07/03 09:45:29;;;;;;;;;;;;;;;36.50;16.22;97792.44;5034227;28;19925;-86
2023/07/03 09:47:57;;;;;;;;;;;;;;;37.34;17.38;97796.38;5047462;28;20388;-85
2023/07/03 09:50:30;;;;;;;;;;;;;;;36.52;17.28;97792.69;5053342;28;20360;-87
2023/07/03 09:52:57;;;;;;;;;;;;;;;36.53;17.47;97799.97;5052837;28;19964;-85
2023/07/03 09:55:25;;;;;;;;;;;;;;;37.20;17.22;97796.75;5053245;28;20292;-86
2023/07/03 09:57:51;;;;;;;;;;;;;;;36.70;16.87;97791.31;5053080;28;19924;-84
2023/07/03 10:00:18;;;;;;;;;;;;;;;35.44;17.27;97791.03;5052651;28;19940;-87
2023/07/03 10:02:45;;;;;;;;;;;;;;;35.94;17.03;97796.72;5045403;28;19921;-87
2023/07/03 10:05:15;;;;;;;;;;;;;;;35.39;18.50;97798.28;5053353;28;20328;-87
2023/07/03 10:07:43;;;;;;;;;;;;;;;35.29;18.03;97796.19;5053493;28;19921;-87
2023/07/03 10:10:13;;;;;;;;;;;;;;;36.66;17.19;97794.47;5050281;28;19917;-87
2023/07/03 10:12:42;;;;;;;;;;;;;;;36.52;16.98;97792.69;5033550;28;19943;-87
2023/07/03 10:15:14;;;;;;;;;;;;;;;35.87;17.33;97792.31;5048830;28;20003;-87
2023/07/03 10:17:45;;;;;;;;;;;;;;;35.31;17.63;97807.91;5044624;28;19927;-87
2023/07/03 10:20:14;;;;;;;;;;;;;;;35.32;18.77;97803.75;5033519;28;20058;-88
2023/07/03 10:22:42;;;;;;;;;;;;;;;35.69;17.67;97792.84;5033434;28;20542;-89
2023/07/03 10:25:12;;;;;;;;;;;;;;;37.07;17.28;97788.78;5045851;28;19934;-88
2023/07/03 10:27:39;;;;;;;;;;;;;;;37.76;17.00;97795.00;5053498;28;20087;-86
2023/07/03 10:30:11;;;;;;;;;;;;;;;36.24;17.09;97791.22;5052861;28;20388;-87
2023/07/03 10:32:39;;;;;;;;;;;;;;;35.79;17.51;97793.38;5053327;28;20034;-87
2023/07/03 10:35:11;;;;;;;;;;;;;;;35.87;17.43;97795.16;5049728;28;19925;-88
2023/07/03 10:37:43;;;;;;;;;;;;;;;35.20;18.55;97788.69;5045703;28;20352;-86
2023/07/03 10:40:10;;;;;;;;;;;;;;;35.92;18.14;97788.66;5052929;28;19940;-87
2023/07/03 10:42:39;;;;;;;;;;;;;;;36.55;17.38;97785.91;5053418;28;19917;-85
2023/07/03 10:45:08;;;;;;;;;;;;;;;36.02;18.15;97789.19;5052416;28;19956;-86
2023/07/03 10:47:40;;;;;;;;;;;;;;;35.63;18.04;97782.75;5053103;28;20403;-84
2023/07/03 10:50:08;;;;;;;;;;;;;;;36.38;17.75;97781.56;5053553;28;19924;-87
2023/07/03 10:52:34;;;;;;;;;;;;;;;36.75;17.45;97790.50;5045499;28;19917;-88
2023/07/03 10:55:10;;;;;;;;;;;;;;;36.37;16.65;97779.97;5033191;28;20312;-86
2023/07/03 10:57:55;;;;;;;;;;;;;;;36.19;16.88;97789.16;5031814;28;19921;-86
2023/07/03 11:00:31;;;;;;;;;;;;;;;35.49;18.00;97786.59;5035164;28;19962;-89
2023/07/03 11:03:04;;;;;;;;;;;;;;;35.20;17.83;97782.19;5053018;28;19917;-85
2023/07/03 11:05:30;;;;;;;;;;;;;;;36.53;17.14;97779.16;5053053;28;20277;-88
2023/07/03 11:08:26;;;;;;;;;;;;;;;36.49;17.33;97784.38;5051716;28;19982;-86
2023/07/03 11:11:04;;;;;;;;;;;;;;;36.60;16.98;97787.97;5036050;28;19928;-86
2023/07/03 11:13:37;;;;;;;;;;;;;;;36.56;18.14;97789.56;5052805;28;19921;-86
2023/07/03 11:16:09;;;;;;;;;;;;;;;35.32;18.17;97789.47;5053151;28;20007;-86
2023/07/03 11:18:35;;;;;;;;;;;;;;;36.99;16.44;97789.88;5052561;28;19920;-86
2023/07/03 11:21:17;;;;;;;;;;;;;;;37.21;16.59;97772.53;5053541;28;19921;-87
2023/07/03 11:23:55;;;;;;;;;;;;;;;38.22;16.95;97768.22;5056395;28;19921;-86
2023/07/03 11:26:28;;;;;;;;;;;;;;;37.77;16.75;97776.50;5050531;28;20023;-86
2023/07/03 11:28:55;;;;;;;;;;;;;;;36.35;17.45;97780.50;5040871;28;20383;-87
2023/07/03 11:31:23;;;;;;;;;;;;;;;35.86;18.19;97784.25;5055164;28;19983;-87
2023/07/03 11:33:51;;;;;;;;;;;;;;;36.46;17.74;97791.16;5056233;28;20372;-86
2023/07/03 11:36:35;;;;;;;;;;;;;;;36.50;17.00;97775.25;5055791;28;19920;-85
2023/07/03 11:39:13;;;;;;;;;;;;;;;37.56;16.11;97768.88;5056312;28;19928;-87
2023/07/03 11:41:52;;;;;;;;;;;;;;;38.36;16.64;97767.03;5056737;28;19917;-88
2023/07/03 11:44:20;;;;;;;;;;;;;;;37.63;16.67;97756.84;5042700;28;19964;-86
2023/07/03 11:46:52;;;;;;;;;;;;;;;36.42;18.03;97759.16;5035419;28;19936;-86
2023/07/03 11:49:18;;;;;;;;;;;;;;;36.98;17.67;97757.59;5038294;28;19928;-83
2023/07/03 11:51:45;;;;;;;;;;;;;;;36.26;18.45;97762.88;5035542;28;19921;-84
2023/07/03 11:54:21;;;;;;;;;;;;;;;37.81;17.48;97759.03;5046369;28;20007;-83
2023/07/03 11:56:49;;;;;;;;;;;;;;;37.79;16.09;97765.28;5054844;28;19951;-82
2023/07/03 11:59:17;;;;;;;;;;;;;;;37.52;15.74;97769.19;5039143;28;19925;-83
2023/07/03 12:01:43;;;;;;;;;;;;;;;37.88;15.47;97767.06;5049478;28;19920;-82
2023/07/03 12:04:09;;;;;;;;;;;;;;;38.45;15.87;97760.16;5053742;28;19920;-82
2023/07/03 12:06:38;;;;;;;;;;;;;;;38.49;15.43;97755.66;5054538;28;19925;-83
2023/07/03 12:09:19;;;;;;;;;;;;;;;38.07;15.58;97767.13;5045073;28;19921;-81
2023/07/03 12:12:00;;;;;;;;;;;;;;;37.84;16.56;97769.41;5055044;28;19917;-83
2023/07/03 12:14:42;;;;;;;;;;;;;;;38.02;16.01;97763.75;5035160;28;19928;-84
2023/07/03 12:17:22;;;;;;;;;;;;;;;38.18;16.93;97764.13;5037312;28;19921;-83
2023/07/03 12:19:49;;;;;;;;;;;;;;;37.45;16.48;97758.31;5037459;28;20024;-88
2023/07/03 12:22:17;;;;;;;;;;;;;;;37.52;17.11;97774.91;5055710;28;19916;-85
2023/07/03 12:24:43;;;;;;;;;;;;;;;37.91;16.42;97763.09;5049282;28;19920;-87
2023/07/03 12:27:09;;;;;;;;;;;;;;;38.32;15.74;97762.94;5053123;28;19947;-88
2023/07/03 12:29:43;;;;;;;;;;;;;;;38.47;15.80;97761.16;5055267;28;19999;-87
2023/07/03 12:32:09;;;;;;;;;;;;;;;37.68;16.56;97756.78;5051673;28;19920;-84
2023/07/03 12:34:38;;;;;;;;;;;;;;;38.32;16.60;97754.31;5047006;28;19917;-87
2023/07/03 12:37:16;;;;;;;;;;;;;;;37.33;15.97;97760.47;5048494;28;19927;-87
2023/07/03 12:39:42;;;;;;;;;;;;;;;37.44;16.04;97747.41;5052044;28;19936;-86
2023/07/03 12:42:09;;;;;;;;;;;;;;;38.02;15.97;97748.63;5052483;28;19947;-89
2023/07/03 12:44:36;;;;;;;;;;;;;;;38.20;15.30;97745.06;5054490;28;19921;-88
2023/07/03 12:47:12;;;;;;;;;;;;;;;38.05;16.70;97751.22;5047266;28;19972;-86
2023/07/03 12:49:46;;;;;;;;;;;;;;;38.49;16.25;97760.59;5054880;28;19917;-85
2023/07/03 12:52:13;;;;;;;;;;;;;;;38.70;15.88;97753.81;5041106;28;19972;-87